JBU217 KLAX-KSEA
Flight info
| Callsign | JBU217 |
|---|---|
| Flight time | N/A |
| Altitude | 34000 |
| Route | LADYJ4 CSTRO SHIMR LKV HAWKZ8 |
| Aircraft | A320/M-SDE3FGHIRWY/LB1 |
Departure
| Time | 2026-05-07 05:03 |
|---|---|
| Airport | Los Angeles International Airport (KLAX) |
Arrival
| Time | N/A |
|---|---|
| Airport | Seattle–Tacoma International Airport (KSEA) |
| Time | Latitude | Longitude | Altitude | Speed | Heading |
|---|---|---|---|---|---|
| 2026-05-07 04:30 | 33.94729 | -118.40066 | 126 ft | 0 kts | 264° |
| 2026-05-07 04:52 | 33.94731 | -118.40043 | 123 ft | 3 kts | 264° |
| 2026-05-07 04:52 | 33.94732 | -118.40020 | 122 ft | 4 kts | 312° |
| 2026-05-07 04:52 | 33.94712 | -118.40011 | 121 ft | 4 kts | 358° |
| 2026-05-07 04:52 | 33.94699 | -118.40011 | 123 ft | 0 kts | 358° |
| 2026-05-07 04:55 | 33.94701 | -118.40011 | 125 ft | 2 kts | 358° |
| 2026-05-07 04:56 | 33.94725 | -118.40012 | 123 ft | 4 kts | 358° |
| 2026-05-07 04:56 | 33.94760 | -118.40011 | 123 ft | 6 kts | 4° |
| 2026-05-07 04:56 | 33.94786 | -118.40009 | 124 ft | 0 kts | 4° |
| 2026-05-07 04:56 | 33.94791 | -118.40008 | 124 ft | 2 kts | 4° |
| 2026-05-07 04:57 | 33.94830 | -118.40020 | 121 ft | 9 kts | 323° |
| 2026-05-07 04:57 | 33.94881 | -118.40080 | 123 ft | 11 kts | 348° |
| 2026-05-07 04:57 | 33.94924 | -118.40018 | 124 ft | 8 kts | 79° |
| 2026-05-07 04:57 | 33.94925 | -118.40010 | 125 ft | 2 kts | 79° |
| 2026-05-07 04:58 | 33.94929 | -118.39985 | 125 ft | 4 kts | 79° |
| 2026-05-07 04:58 | 33.94934 | -118.39958 | 123 ft | 6 kts | 77° |
| 2026-05-07 04:58 | 33.94955 | -118.39924 | 123 ft | 0 kts | 29° |
| 2026-05-07 05:01 | 33.94975 | -118.39915 | 123 ft | 7 kts | 16° |
| 2026-05-07 05:01 | 33.95028 | -118.39926 | 125 ft | 9 kts | 326° |
| 2026-05-07 05:01 | 33.95037 | -118.39988 | 124 ft | 0 kts | 263° |
| 2026-05-07 05:02 | 33.95030 | -118.40067 | 125 ft | 36 kts | 264° |
| 2026-05-07 05:02 | 33.94970 | -118.40643 | 126 ft | 99 kts | 263° |
| 2026-05-07 05:02 | 33.94864 | -118.41670 | 126 ft | 146 kts | 263° |
| 2026-05-07 05:02 | 33.94719 | -118.43026 | 293 ft | 171 kts | 262° |
| 2026-05-07 05:03 | 33.94558 | -118.44426 | 1003 ft | 168 kts | 262° |
| 2026-05-07 05:03 | 33.94438 | -118.45816 | 1646 ft | 165 kts | 265° |
| 2026-05-07 05:03 | 33.94355 | -118.47249 | 1970 ft | 181 kts | 267° |
| 2026-05-07 05:03 | 33.94292 | -118.48819 | 2226 ft | 200 kts | 268° |
| 2026-05-07 05:04 | 33.94242 | -118.50591 | 2465 ft | 223 kts | 268° |
| 2026-05-07 05:04 | 33.94134 | -118.52557 | 2794 ft | 247 kts | 265° |
| 2026-05-07 05:04 | 33.93971 | -118.54689 | 3338 ft | 262 kts | 264° |
| 2026-05-07 05:04 | 33.93788 | -118.56894 | 4134 ft | 266 kts | 265° |
| 2026-05-07 05:05 | 33.93601 | -118.59121 | 4983 ft | 268 kts | 265° |
| 2026-05-07 05:05 | 33.93415 | -118.61368 | 5760 ft | 272 kts | 266° |
| 2026-05-07 05:05 | 33.93230 | -118.63659 | 6497 ft | 277 kts | 267° |
| 2026-05-07 05:05 | 33.93045 | -118.65992 | 7186 ft | 283 kts | 266° |
| 2026-05-07 05:06 | 33.92861 | -118.68369 | 7880 ft | 288 kts | 266° |
| 2026-05-07 05:06 | 33.92672 | -118.70789 | 8564 ft | 294 kts | 266° |
| 2026-05-07 05:06 | 33.92480 | -118.73263 | 9242 ft | 300 kts | 266° |
| 2026-05-07 05:06 | 33.92282 | -118.75784 | 9906 ft | 306 kts | 266° |
| 2026-05-07 05:07 | 33.92078 | -118.78382 | 10296 ft | 321 kts | 266° |
| 2026-05-07 05:07 | 33.91862 | -118.81160 | 10444 ft | 344 kts | 266° |
| 2026-05-07 05:07 | 33.91722 | -118.84117 | 10589 ft | 363 kts | 273° |
| 2026-05-07 05:07 | 33.91820 | -118.87198 | 11032 ft | 371 kts | 274° |
| 2026-05-07 05:08 | 33.91918 | -118.90320 | 11620 ft | 375 kts | 274° |
| 2026-05-07 05:08 | 33.92011 | -118.93475 | 12216 ft | 379 kts | 274° |
| 2026-05-07 05:08 | 33.92104 | -118.96663 | 12816 ft | 382 kts | 274° |
| 2026-05-07 05:08 | 33.92368 | -118.99847 | 13409 ft | 384 kts | 283° |
| 2026-05-07 05:09 | 33.93127 | -119.02925 | 13978 ft | 384 kts | 295° |
| 2026-05-07 05:09 | 33.94361 | -119.05779 | 14495 ft | 384 kts | 304° |
| 2026-05-07 05:09 | 33.95782 | -119.08513 | 15062 ft | 386 kts | 304° |
| 2026-05-07 05:09 | 33.97188 | -119.11229 | 15582 ft | 388 kts | 304° |
| 2026-05-07 05:10 | 33.98619 | -119.14000 | 16114 ft | 390 kts | 304° |
| 2026-05-07 05:10 | 34.00092 | -119.16757 | 16639 ft | 391 kts | 309° |
| 2026-05-07 05:10 | 34.01887 | -119.19203 | 17164 ft | 390 kts | 320° |
| 2026-05-07 05:10 | 34.04011 | -119.21229 | 17671 ft | 390 kts | 327° |
| 2026-05-07 05:11 | 34.06231 | -119.23127 | 18209 ft | 392 kts | 327° |
| 2026-05-07 05:11 | 34.08462 | -119.25034 | 18687 ft | 395 kts | 327° |
| 2026-05-07 05:11 | 34.10704 | -119.26957 | 19174 ft | 396 kts | 327° |
| 2026-05-07 05:11 | 34.12952 | -119.28892 | 19655 ft | 398 kts | 327° |
| 2026-05-07 05:12 | 34.15215 | -119.30843 | 20153 ft | 400 kts | 327° |
| 2026-05-07 05:12 | 34.17490 | -119.32805 | 20601 ft | 402 kts | 327° |
| 2026-05-07 05:12 | 34.19772 | -119.34772 | 21041 ft | 404 kts | 327° |
| 2026-05-07 05:12 | 34.22069 | -119.36753 | 21475 ft | 407 kts | 327° |
| 2026-05-07 05:13 | 34.24377 | -119.38747 | 21886 ft | 409 kts | 327° |
| 2026-05-07 05:13 | 34.26696 | -119.40752 | 22301 ft | 411 kts | 327° |
| 2026-05-07 05:13 | 34.29028 | -119.42769 | 22711 ft | 413 kts | 327° |
| 2026-05-07 05:13 | 34.31368 | -119.44796 | 23116 ft | 415 kts | 327° |
| 2026-05-07 05:14 | 34.33721 | -119.46834 | 23527 ft | 417 kts | 327° |
| 2026-05-07 05:14 | 34.36088 | -119.48869 | 23867 ft | 418 kts | 329° |
| 2026-05-07 05:14 | 34.38645 | -119.50523 | 24180 ft | 416 kts | 340° |
| 2026-05-07 05:14 | 34.41411 | -119.51533 | 24507 ft | 415 kts | 351° |
| 2026-05-07 05:15 | 34.44283 | -119.51872 | 24821 ft | 415 kts | 1° |
| 2026-05-07 05:15 | 34.47158 | -119.51526 | 25126 ft | 416 kts | 12° |
| 2026-05-07 05:15 | 34.49981 | -119.50734 | 25460 ft | 417 kts | 13° |
| 2026-05-07 05:15 | 34.52781 | -119.49935 | 25782 ft | 419 kts | 13° |
| 2026-05-07 05:16 | 34.55628 | -119.49125 | 26095 ft | 421 kts | 13° |
| 2026-05-07 05:16 | 34.58487 | -119.48315 | 26438 ft | 423 kts | 13° |
| 2026-05-07 05:16 | 34.61366 | -119.47501 | 26768 ft | 425 kts | 13° |
| 2026-05-07 05:16 | 34.64255 | -119.46680 | 27093 ft | 427 kts | 13° |
| 2026-05-07 05:17 | 34.67150 | -119.45857 | 27411 ft | 429 kts | 13° |
| 2026-05-07 05:17 | 34.70056 | -119.45030 | 27819 ft | 428 kts | 13° |
| 2026-05-07 05:17 | 34.72951 | -119.44204 | 28273 ft | 426 kts | 13° |
| 2026-05-07 05:17 | 34.75838 | -119.43381 | 28735 ft | 425 kts | 13° |
| 2026-05-07 05:18 | 34.78718 | -119.42561 | 29198 ft | 424 kts | 13° |
| 2026-05-07 05:18 | 34.81587 | -119.41744 | 29648 ft | 423 kts | 13° |
| 2026-05-07 05:18 | 34.84451 | -119.40925 | 30106 ft | 422 kts | 13° |
| 2026-05-07 05:18 | 34.87303 | -119.40107 | 30500 ft | 421 kts | 13° |
| 2026-05-07 05:19 | 34.90151 | -119.39288 | 30866 ft | 420 kts | 13° |
| 2026-05-07 05:19 | 34.92992 | -119.38472 | 31251 ft | 419 kts | 13° |
| 2026-05-07 05:19 | 34.95829 | -119.37657 | 31644 ft | 418 kts | 13° |
| 2026-05-07 05:19 | 34.98658 | -119.36846 | 32049 ft | 417 kts | 13° |
| 2026-05-07 05:20 | 35.01476 | -119.36038 | 32452 ft | 415 kts | 13° |
| 2026-05-07 05:20 | 35.04285 | -119.35234 | 32852 ft | 414 kts | 13° |
| 2026-05-07 05:20 | 35.07086 | -119.34432 | 33259 ft | 413 kts | 13° |
| 2026-05-07 05:20 | 35.09841 | -119.33642 | 33658 ft | 411 kts | 13° |
| 2026-05-07 05:21 | 35.12658 | -119.32831 | 34023 ft | 411 kts | 13° |
| 2026-05-07 05:21 | 35.18242 | -119.31217 | 34101 ft | 421 kts | 13° |
| 2026-05-07 05:22 | 35.23984 | -119.29558 | 34103 ft | 426 kts | 13° |
| 2026-05-07 05:22 | 35.29754 | -119.27893 | 34098 ft | 426 kts | 13° |
| 2026-05-07 05:23 | 35.35527 | -119.26225 | 34095 ft | 426 kts | 13° |
| 2026-05-07 05:23 | 35.41301 | -119.24561 | 34106 ft | 426 kts | 11° |
| 2026-05-07 05:24 | 35.47196 | -119.24346 | 34121 ft | 427 kts | 353° |
| 2026-05-07 05:24 | 35.52994 | -119.25976 | 34118 ft | 428 kts | 348° |
| 2026-05-07 05:25 | 35.58788 | -119.27701 | 34131 ft | 428 kts | 348° |
| 2026-05-07 05:25 | 35.64539 | -119.29418 | 34149 ft | 428 kts | 348° |
| 2026-05-07 05:26 | 35.70323 | -119.31149 | 34155 ft | 428 kts | 348° |
| 2026-05-07 05:26 | 35.76107 | -119.32883 | 34156 ft | 427 kts | 348° |
| 2026-05-07 05:27 | 35.81883 | -119.34622 | 34152 ft | 427 kts | 347° |
| 2026-05-07 05:27 | 35.87669 | -119.36367 | 34133 ft | 427 kts | 347° |
| 2026-05-07 05:28 | 35.93448 | -119.38112 | 34130 ft | 427 kts | 347° |
| 2026-05-07 05:28 | 35.99225 | -119.39857 | 34129 ft | 428 kts | 347° |
| 2026-05-07 05:29 | 36.05005 | -119.41599 | 34130 ft | 428 kts | 347° |
| 2026-05-07 05:29 | 36.10796 | -119.43353 | 34137 ft | 428 kts | 347° |
| 2026-05-07 05:30 | 36.16585 | -119.45116 | 34147 ft | 428 kts | 347° |
| 2026-05-07 05:30 | 36.22382 | -119.46875 | 34146 ft | 429 kts | 347° |
| 2026-05-07 05:31 | 36.28178 | -119.48637 | 34158 ft | 429 kts | 347° |
| 2026-05-07 05:31 | 36.33937 | -119.50390 | 34154 ft | 429 kts | 347° |
| 2026-05-07 05:32 | 36.39743 | -119.52160 | 34148 ft | 429 kts | 347° |
| 2026-05-07 05:32 | 36.45548 | -119.53938 | 34141 ft | 429 kts | 347° |
| 2026-05-07 05:33 | 36.51357 | -119.55711 | 34136 ft | 429 kts | 347° |
| 2026-05-07 05:33 | 36.57164 | -119.57492 | 34135 ft | 430 kts | 347° |
| 2026-05-07 05:34 | 36.62970 | -119.59270 | 34140 ft | 429 kts | 347° |
| 2026-05-07 05:34 | 36.68727 | -119.61040 | 34150 ft | 429 kts | 346° |
| 2026-05-07 05:35 | 36.74527 | -119.62832 | 34156 ft | 429 kts | 346° |
| 2026-05-07 05:35 | 36.80324 | -119.64631 | 34154 ft | 429 kts | 346° |
| 2026-05-07 05:36 | 36.86118 | -119.66419 | 34156 ft | 429 kts | 346° |
| 2026-05-07 05:36 | 36.91915 | -119.68208 | 34150 ft | 429 kts | 346° |
| 2026-05-07 05:37 | 36.97712 | -119.70003 | 34146 ft | 429 kts | 346° |
| 2026-05-07 05:37 | 37.03502 | -119.71798 | 34144 ft | 428 kts | 346° |
| 2026-05-07 05:38 | 37.09283 | -119.73595 | 34143 ft | 428 kts | 346° |
| 2026-05-07 05:38 | 37.15066 | -119.75394 | 34145 ft | 428 kts | 346° |
| 2026-05-07 05:39 | 37.20839 | -119.77195 | 34156 ft | 427 kts | 346° |
| 2026-05-07 05:39 | 37.26569 | -119.78996 | 34154 ft | 427 kts | 346° |
| 2026-05-07 05:40 | 37.32342 | -119.80803 | 34158 ft | 427 kts | 346° |
| 2026-05-07 05:40 | 37.38113 | -119.82609 | 34167 ft | 427 kts | 346° |
| 2026-05-07 05:41 | 37.43872 | -119.84410 | 34148 ft | 427 kts | 346° |
| 2026-05-07 05:41 | 37.49636 | -119.86225 | 34152 ft | 427 kts | 346° |
| 2026-05-07 05:42 | 37.55402 | -119.88047 | 34162 ft | 427 kts | 346° |
| 2026-05-07 05:42 | 37.61168 | -119.89865 | 34166 ft | 427 kts | 345° |
| 2026-05-07 05:43 | 37.66932 | -119.91681 | 34171 ft | 427 kts | 345° |
| 2026-05-07 05:43 | 37.72691 | -119.93502 | 34168 ft | 427 kts | 345° |
| 2026-05-07 05:44 | 37.78449 | -119.95323 | 34169 ft | 427 kts | 345° |
| 2026-05-07 05:44 | 37.84204 | -119.97154 | 34167 ft | 426 kts | 345° |
| 2026-05-07 05:45 | 37.89921 | -119.98980 | 34167 ft | 426 kts | 345° |
| 2026-05-07 05:45 | 37.95678 | -120.00810 | 34176 ft | 426 kts | 345° |
| 2026-05-07 05:46 | 38.01424 | -120.02638 | 34176 ft | 426 kts | 345° |
| 2026-05-07 05:46 | 38.07179 | -120.04478 | 34178 ft | 426 kts | 345° |
| 2026-05-07 05:47 | 38.12920 | -120.06314 | 34177 ft | 426 kts | 345° |
| 2026-05-07 05:47 | 38.18660 | -120.08155 | 34174 ft | 425 kts | 345° |
| 2026-05-07 05:48 | 38.23448 | -120.09583 | 34181 ft | 426 kts | 351° |
| 2026-05-07 05:48 | 38.29363 | -120.10195 | 34183 ft | 427 kts | 354° |
| 2026-05-07 05:49 | 38.35289 | -120.10725 | 34184 ft | 427 kts | 354° |
| 2026-05-07 05:49 | 38.41212 | -120.11251 | 34185 ft | 427 kts | 354° |
| 2026-05-07 05:50 | 38.47139 | -120.11799 | 34178 ft | 427 kts | 354° |
| 2026-05-07 05:50 | 38.53065 | -120.12352 | 34191 ft | 427 kts | 354° |
| 2026-05-07 05:51 | 38.59003 | -120.12897 | 34191 ft | 427 kts | 354° |
| 2026-05-07 05:51 | 38.64931 | -120.13432 | 34192 ft | 427 kts | 354° |
| 2026-05-07 05:52 | 38.70865 | -120.13971 | 34193 ft | 427 kts | 354° |
| 2026-05-07 05:52 | 38.76795 | -120.14518 | 34191 ft | 427 kts | 354° |
| 2026-05-07 05:53 | 38.82687 | -120.15066 | 34188 ft | 427 kts | 354° |
| 2026-05-07 05:53 | 38.88616 | -120.15611 | 34190 ft | 427 kts | 354° |
| 2026-05-07 05:54 | 38.94551 | -120.16155 | 34188 ft | 428 kts | 355° |
| 2026-05-07 05:54 | 39.00489 | -120.16708 | 34202 ft | 428 kts | 355° |
| 2026-05-07 05:55 | 39.06430 | -120.17255 | 34222 ft | 428 kts | 355° |
| 2026-05-07 05:55 | 39.12366 | -120.17807 | 34260 ft | 428 kts | 355° |
| 2026-05-07 05:56 | 39.18308 | -120.18360 | 34288 ft | 428 kts | 356° |
| 2026-05-07 05:56 | 39.24247 | -120.18911 | 34318 ft | 428 kts | 355° |
| 2026-05-07 05:57 | 39.30185 | -120.19462 | 34320 ft | 428 kts | 356° |
| 2026-05-07 05:57 | 39.36127 | -120.20018 | 34320 ft | 428 kts | 356° |
| 2026-05-07 05:57 | 39.39097 | -120.20298 | 34103 ft | 428 kts | 356° |
| 2026-05-07 05:58 | 39.42067 | -120.20578 | 34106 ft | 428 kts | 356° |
| 2026-05-07 05:58 | 39.48004 | -120.21136 | 34101 ft | 428 kts | 356° |
| 2026-05-07 05:59 | 39.53941 | -120.21697 | 34101 ft | 428 kts | 356° |
| 2026-05-07 05:59 | 39.59885 | -120.22257 | 34100 ft | 428 kts | 356° |
| 2026-05-07 06:00 | 39.65828 | -120.22820 | 34101 ft | 428 kts | 356° |
| 2026-05-07 06:00 | 39.71733 | -120.23369 | 34101 ft | 428 kts | 357° |
| 2026-05-07 06:01 | 39.77676 | -120.23929 | 34100 ft | 427 kts | 357° |
| 2026-05-07 06:01 | 39.83605 | -120.24494 | 34097 ft | 427 kts | 356° |
| 2026-05-07 06:02 | 39.89533 | -120.25066 | 34103 ft | 427 kts | 356° |
| 2026-05-07 06:02 | 39.95468 | -120.25626 | 34100 ft | 427 kts | 356° |
| 2026-05-07 06:03 | 40.01392 | -120.26181 | 34094 ft | 427 kts | 356° |
| 2026-05-07 06:03 | 40.07311 | -120.26738 | 34090 ft | 426 kts | 356° |
| 2026-05-07 06:04 | 40.13182 | -120.27294 | 34099 ft | 426 kts | 356° |
| 2026-05-07 06:04 | 40.19089 | -120.27866 | 34118 ft | 425 kts | 356° |
| 2026-05-07 06:05 | 40.24992 | -120.28438 | 34130 ft | 425 kts | 356° |
| 2026-05-07 06:05 | 40.30904 | -120.29007 | 34147 ft | 425 kts | 356° |
| 2026-05-07 06:06 | 40.36809 | -120.29572 | 34155 ft | 425 kts | 356° |
| 2026-05-07 06:06 | 40.42705 | -120.30143 | 34158 ft | 425 kts | 356° |
| 2026-05-07 06:07 | 40.48606 | -120.30714 | 34149 ft | 425 kts | 356° |
| 2026-05-07 06:07 | 40.54505 | -120.31286 | 34135 ft | 425 kts | 356° |
| 2026-05-07 06:08 | 40.60396 | -120.31856 | 34121 ft | 424 kts | 356° |
| 2026-05-07 06:08 | 40.66251 | -120.32414 | 34103 ft | 424 kts | 356° |
| 2026-05-07 06:09 | 40.72143 | -120.32987 | 34095 ft | 424 kts | 356° |
| 2026-05-07 06:09 | 40.78032 | -120.33561 | 34093 ft | 424 kts | 356° |
| 2026-05-07 06:10 | 40.83920 | -120.34139 | 34103 ft | 424 kts | 356° |
| 2026-05-07 06:10 | 40.89808 | -120.34722 | 34105 ft | 425 kts | 356° |
| 2026-05-07 06:11 | 40.95700 | -120.35303 | 34109 ft | 425 kts | 356° |
| 2026-05-07 06:11 | 41.01600 | -120.35875 | 34105 ft | 425 kts | 356° |
| 2026-05-07 06:12 | 41.07499 | -120.36444 | 34120 ft | 425 kts | 356° |
| 2026-05-07 06:12 | 41.13397 | -120.37018 | 34125 ft | 425 kts | 355° |
| 2026-05-07 06:13 | 41.19298 | -120.37614 | 34137 ft | 425 kts | 355° |
| 2026-05-07 06:13 | 41.25202 | -120.38203 | 34161 ft | 425 kts | 355° |
| 2026-05-07 06:14 | 41.31061 | -120.38780 | 34181 ft | 425 kts | 355° |
| 2026-05-07 06:14 | 41.36960 | -120.39369 | 34201 ft | 425 kts | 355° |
| 2026-05-07 06:15 | 41.42865 | -120.39954 | 34212 ft | 426 kts | 355° |
| 2026-05-07 06:15 | 41.48774 | -120.40544 | 34138 ft | 426 kts | 355° |
| 2026-05-07 06:16 | 41.54682 | -120.41121 | 34138 ft | 425 kts | 355° |
| 2026-05-07 06:16 | 41.60586 | -120.41701 | 34132 ft | 425 kts | 355° |
| 2026-05-07 06:17 | 41.66491 | -120.42293 | 34138 ft | 425 kts | 355° |
| 2026-05-07 06:17 | 41.72395 | -120.42890 | 34136 ft | 425 kts | 355° |
| 2026-05-07 06:18 | 41.78297 | -120.43491 | 34144 ft | 426 kts | 355° |
| 2026-05-07 06:18 | 41.84172 | -120.44080 | 34164 ft | 426 kts | 355° |
| 2026-05-07 06:19 | 41.90080 | -120.44669 | 34183 ft | 425 kts | 355° |
| 2026-05-07 06:19 | 41.95984 | -120.45267 | 34204 ft | 425 kts | 355° |
| 2026-05-07 06:20 | 42.01892 | -120.45866 | 34214 ft | 425 kts | 355° |
| 2026-05-07 06:20 | 42.07790 | -120.46458 | 34226 ft | 425 kts | 355° |
| 2026-05-07 06:21 | 42.13691 | -120.47069 | 34226 ft | 425 kts | 354° |
| 2026-05-07 06:21 | 42.19591 | -120.47670 | 34166 ft | 425 kts | 354° |
| 2026-05-07 06:22 | 42.25488 | -120.48266 | 34174 ft | 425 kts | 354° |
| 2026-05-07 06:22 | 42.34333 | -120.49160 | 34173 ft | 425 kts | 354° |
| 2026-05-07 06:23 | 42.40235 | -120.49775 | 34165 ft | 425 kts | 354° |
| 2026-05-07 06:23 | 42.46091 | -120.50380 | 34164 ft | 425 kts | 354° |
| 2026-05-07 06:24 | 42.51801 | -120.52225 | 34162 ft | 423 kts | 336° |